^^
Grace C. Lehan Memorial Weather Station Historical Data
Daily Summary for June 8, 2021 Units:  English    Metric   Both
Daily Weekly Monthly Yearly
  High: Low: Average:
Temperature: 51.6 °F 46.1 °F 48.3 °F
Dew Point: 42.2 °F 40.3 °F 41.2 °F
Humidity: 84% 66.1% 76%
Wind Speed: 1.5mph 0mph 0.1mph
Wind Gust: 7mph - -
Wind- - SE
Pressure: 29.87 in 29.80 in -
Precipitation: 0.00 in    
 
 
Tabular Data for June 8, 2021
Time Temperature Dew Point Pressure Wind Wind Speed Wind Gust Humidity Rainfall Rate (Hourly) solar
00:00 50 °F 40.6 °F 29.86 in Calm     70% 0.00 in 0 W/m2
00:09 49.9 °F 40.5 °F 29.87 in Calm     70% 0.00 in 0 W/m2
00:14 49.8 °F 40.4 °F 29.87 in Calm     70% 0.00 in 0 W/m2
00:19 49.7 °F 40.3 °F 29.87 in Calm     70% 0.00 in 0 W/m2
00:24 49.7 °F 40.3 °F 29.87 in Calm     70% 0.00 in 0 W/m2
00:29 49.7 °F 40.5 °F 29.87 in Calm     70.6% 0.00 in 0 W/m2
00:34 49.7 °F 40.7 °F 29.87 in Calm     71% 0.00 in 0 W/m2
00:39 49.7 °F 40.7 °F 29.87 in Calm     71% 0.00 in 0 W/m2
00:44 49.6 °F 40.5 °F 29.87 in Calm     70.7% 0.00 in 0 W/m2
00:49 49.7 °F 41 °F 29.87 in Calm     71.8% 0.00 in 0 W/m2
00:54 49.7 °F 41.4 °F 29.86 in Calm     72.9% 0.00 in 0 W/m2
00:59 49.7 °F 41.7 °F 29.86 in Calm     73.8% 0.00 in 0 W/m2
01:04 49.7 °F 41.8 °F 29.85 in Calm     74.1% 0.00 in 0 W/m2
01:09 49.7 °F 42.1 °F 29.85 in Calm     75% 0.00 in 0 W/m2
01:14 49.7 °F 42.1 °F 29.85 in Calm     75% 0.00 in 0 W/m2
01:19 49.7 °F 42.1 °F 29.85 in Calm     75% 0.00 in 0 W/m2
01:24 49.6 °F 42 °F 29.85 in Calm     74.9% 0.00 in 0 W/m2
01:29 49.6 °F 41.7 °F 29.84 in Calm     74% 0.00 in 0 W/m2
01:34 49.5 °F 41.5 °F 29.84 in Calm     73.7% 0.00 in 0 W/m2
01:39 49.4 °F 41.6 °F 29.84 in Calm     74.4% 0.00 in 0 W/m2
01:44 49.4 °F 41.9 °F 29.84 in Calm     75.4% 0.00 in 0 W/m2
01:49 49.3 °F 42.1 °F 29.84 in Calm     76% 0.00 in 0 W/m2
01:54 49.3 °F 42 °F 29.84 in Calm     76% 0.00 in 0 W/m2
01:59 49.2 °F 41.9 °F 29.84 in Calm     75.9% 0.00 in 0 W/m2
02:04 49.1 °F 41.5 °F 29.84 in Calm     75% 0.00 in 0 W/m2
02:09 49 °F 41.2 °F 29.84 in Calm     74.2% 0.00 in 0 W/m2
02:14 49 °F 40.9 °F 29.83 in Calm     73.6% 0.00 in 0 W/m2
02:19 48.9 °F 40.6 °F 29.83 in Calm     73% 0.00 in 0 W/m2
02:24 48.8 °F 40.8 °F 29.83 in Calm     73.7% 0.00 in 0 W/m2
02:29 48.8 °F 40.9 °F 29.83 in Calm     74% 0.00 in 0 W/m2
02:34 48.7 °F 40.8 °F 29.83 in Calm     74% 0.00 in 0 W/m2
02:39 48.7 °F 40.8 °F 29.83 in Calm     74% 0.00 in 0 W/m2
02:44 48.6 °F 40.7 °F 29.83 in Calm     74% 0.00 in 0 W/m2
02:49 48.5 °F 40.6 °F 29.83 in Calm     74% 0.00 in 0 W/m2
02:54 48.5 °F 40.6 °F 29.82 in Calm     74% 0.00 in 0 W/m2
02:59 48.4 °F 40.6 °F 29.82 in Calm     74.3% 0.00 in 0 W/m2
03:04 48.3 °F 40.9 °F 29.82 in Calm     75.5% 0.00 in 0 W/m2
03:09 48.2 °F 41 °F 29.82 in Calm     76.1% 0.00 in 0 W/m2
03:14 48.1 °F 41.2 °F 29.82 in Calm     76.9% 0.00 in 0 W/m2
03:19 48 °F 41 °F 29.82 in Calm     76.7% 0.00 in 0 W/m2
03:24 47.9 °F 40.7 °F 29.82 in Calm     76% 0.00 in 0 W/m2
03:29 47.8 °F 40.6 °F 29.82 in Calm     76% 0.00 in 0 W/m2
03:34 47.7 °F 40.7 °F 29.82 in Calm     76.6% 0.00 in 0 W/m2
03:39 47.6 °F 40.7 °F 29.82 in Calm     77% 0.00 in 0 W/m2
03:44 47.4 °F 40.6 °F 29.82 in Calm     77% 0.00 in 0 W/m2
03:49 47.3 °F 40.5 °F 29.81 in Calm     77% 0.00 in 0 W/m2
03:54 47.2 °F 40.4 °F 29.81 in Calm     77% 0.00 in 0 W/m2
03:59 47.2 °F 40.4 °F 29.81 in Calm     77% 0.00 in 0 W/m2
04:00 47.1 °F 40.6 °F 29.81 in Calm     78% 0.00 in 0 W/m2
04:09 47 °F 40.7 °F 29.80 in Calm     78.5% 0.00 in 0 W/m2
04:14 47 °F 40.8 °F 29.80 in Calm     79.1% 0.00 in 0 W/m2
04:19 46.9 °F 40.9 °F 29.80 in Calm     79.6% 0.00 in 0 W/m2
04:24 46.8 °F 41 °F 29.80 in Calm     80% 0.00 in 0 W/m2
04:29 46.8 °F 41 °F 29.80 in Calm     80% 0.00 in 0 W/m2
04:34 46.8 °F 40.9 °F 29.80 in Calm     80% 0.00 in 0 W/m2
04:39 46.7 °F 41.2 °F 29.80 in Calm     81% 0.00 in 0 W/m2
04:44 46.6 °F 41.1 °F 29.80 in Calm     81% 0.00 in 0 W/m2
04:49 46.5 °F 41.3 °F 29.80 in Calm     81.8% 0.00 in 0 W/m2
04:54 46.5 °F 41.3 °F 29.80 in Calm     82% 0.00 in 0 W/m2
04:59 46.5 °F 41.3 °F 29.80 in Calm     82% 0.00 in 0 W/m2
05:04 46.5 °F 41.3 °F 29.80 in Calm     82% 0.00 in 0 W/m2
05:09 46.5 °F 41.3 °F 29.81 in Calm     82% 0.00 in 0 W/m2
05:14 46.5 °F 41.3 °F 29.81 in Calm     82% 0.00 in 0 W/m2
05:19 46.5 °F 41.3 °F 29.80 in Calm     82% 0.00 in 0 W/m2
05:24 46.5 °F 41.4 °F 29.80 in Calm     82.3% 0.00 in 0 W/m2
05:29 46.5 °F 41.5 °F 29.80 in Calm     82.8% 0.00 in 0 W/m2
05:34 46.5 °F 41.6 °F 29.80 in Calm     83% 0.00 in 0 W/m2
05:39 46.4 °F 41.6 °F 29.80 in Calm     83% 0.00 in 0 W/m2
05:44 46.4 °F 41.6 °F 29.80 in Calm     83.2% 0.00 in 0 W/m2
05:49 46.3 °F 41.8 °F 29.80 in Calm   1 mph 84% 0.00 in 0 W/m2
05:54 46.3 °F 41.7 °F 29.80 in Calm   1 mph 84% 0.00 in 5 W/m2
05:59 46.3 °F 41.5 °F 29.80 in Calm   1 mph 83.5% 0.00 in 7 W/m2
06:04 46.2 °F 41.5 °F 29.80 in Calm   1 mph 83.5% 0.00 in 11 W/m2
06:09 46.2 °F 41.4 °F 29.80 in Calm     83.3% 0.00 in 12 W/m2
06:14 46.1 °F 41.2 °F 29.80 in Calm     83% 0.00 in 14 W/m2
06:19 46.1 °F 41.2 °F 29.80 in Calm     83% 0.00 in 14 W/m2
06:24 46.2 °F 41.3 °F 29.81 in SSW 0.1 mph 2 mph 83% 0.00 in 16 W/m2
06:29 46.2 °F 41.3 °F 29.80 in SSW 0.3 mph 4 mph 83% 0.00 in 18 W/m2
06:34 46.2 °F 41.2 °F 29.80 in Calm   4 mph 82.6% 0.00 in 19 W/m2
06:39 46.3 °F 41.1 °F 29.81 in Calm     82% 0.00 in 21 W/m2
06:44 46.4 °F 41.2 °F 29.81 in Calm     82% 0.00 in 25 W/m2
06:49 46.5 °F 41.2 °F 29.81 in SSW 0.1 mph 2 mph 81.8% 0.00 in 30 W/m2
06:54 46.6 °F 41.1 °F 29.81 in SSW 0.1 mph 2 mph 81% 0.00 in 35 W/m2
06:59 46.8 °F 41.2 °F 29.81 in SSW 0.1 mph 2 mph 81% 0.00 in 44 W/m2
07:04 46.9 °F 41.4 °F 29.81 in Calm   2 mph 81% 0.00 in 51 W/m2
07:09 47.1 °F 41.5 °F 29.82 in Calm     80.9% 0.00 in 58 W/m2
07:14 47.3 °F 41.6 °F 29.82 in Calm     80.4% 0.00 in 63 W/m2
07:19 47.5 °F 42 °F 29.82 in Calm     81% 0.00 in 69 W/m2
07:24 47.7 °F 41.9 °F 29.82 in Calm     80.1% 0.00 in 76 W/m2
07:29 47.9 °F 42.1 °F 29.82 in Calm     80% 0.00 in 81 W/m2
07:30 48.1 °F 42.2 °F 29.82 in Calm     80% 0.00 in 64 W/m2
08:04 49.3 °F 41.4 °F 29.83 in Calm     74% 0.00 in 95 W/m2
08:09 49.4 °F 41.4 °F 29.83 in Calm     73.8% 0.00 in 95 W/m2
08:14 49.5 °F 41.4 °F 29.84 in Calm   1 mph 73.5% 0.00 in 93 W/m2
08:19 49.6 °F 41 °F 29.84 in Calm   1 mph 72.1% 0.00 in 93 W/m2
08:24 49.7 °F 40.7 °F 29.84 in NNW 0.1 mph 3 mph 71% 0.00 in 95 W/m2
08:29 49.7 °F 40.6 °F 29.85 in Calm   3 mph 70.6% 0.00 in 102 W/m2
08:34 49.8 °F 40.4 °F 29.85 in Calm   3 mph 70% 0.00 in 111 W/m2
08:39 49.9 °F 40.8 °F 29.85 in NE 0.6 mph 5 mph 70.7% 0.00 in 120 W/m2
08:44 50 °F 40.3 °F 29.85 in Calm   5 mph 69.2% 0.00 in 127 W/m2
08:49 50 °F 40.3 °F 29.85 in ENE 0.3 mph 5 mph 69.1% 0.00 in 137 W/m2
08:54 50 °F 40.5 °F 29.85 in NE 0.2 mph 5 mph 69.7% 0.00 in 156 W/m2
08:59 50.2 °F 41 °F 29.85 in ENE 0.7 mph 5 mph 70.6% 0.00 in 171 W/m2
09:04 50.3 °F 41.4 °F 29.85 in Calm   5 mph 71.2% 0.00 in 181 W/m2
09:09 50.6 °F 41.8 °F 29.85 in Calm   2 mph 71.7% 0.00 in 195 W/m2
09:14 50.9 °F 42 °F 29.85 in Calm   2 mph 71.5% 0.00 in 220 W/m2
09:19 51.1 °F 41.9 °F 29.85 in ENE 0.1 mph 2 mph 70.6% 0.00 in 234 W/m2
09:24 51.4 °F 41.5 °F 29.86 in ENE 0.1 mph 3 mph 68.8% 0.00 in 236 W/m2
09:29 51.5 °F 41 °F 29.86 in ENE 0.5 mph 4 mph 67.2% 0.00 in 234 W/m2
09:34 51.5 °F 40.6 °F 29.86 in ESE 0.6 mph 5 mph 66.1% 0.00 in 230 W/m2
09:39 51.5 °F 40.7 °F 29.86 in NE 1.1 mph 7 mph 66.4% 0.00 in 230 W/m2
09:43 51.6 °F 40.7 °F 29.86 in NE 1.5 mph 7 mph 66.3% 0.00 in 229 W/m2
Hartford County Weather
Compliments of Weather Underground - 4 mb